sensor_id;sensor_type;location;lat;lon;timestamp;P1;durP1;ratioP1;P2;durP2;ratioP2
54328;SDS011;40710;51.120;13.136;2022-07-22T00:02:03;4.35;;;2.50;;
54328;SDS011;40710;51.120;13.136;2022-07-22T00:04:27;5.20;;;3.70;;
54328;SDS011;40710;51.120;13.136;2022-07-22T00:06:51;16.48;;;12.80;;
54328;SDS011;40710;51.120;13.136;2022-07-22T00:09:16;8.15;;;5.13;;
54328;SDS011;40710;51.120;13.136;2022-07-22T00:11:40;4.55;;;2.72;;
54328;SDS011;40710;51.120;13.136;2022-07-22T00:14:04;5.68;;;2.83;;
54328;SDS011;40710;51.120;13.136;2022-07-22T00:16:29;4.63;;;2.42;;
54328;SDS011;40710;51.120;13.136;2022-07-22T00:18:53;4.15;;;2.65;;
54328;SDS011;40710;51.120;13.136;2022-07-22T00:21:18;5.25;;;2.78;;
54328;SDS011;40710;51.120;13.136;2022-07-22T00:23:42;4.78;;;2.38;;
54328;SDS011;40710;51.120;13.136;2022-07-22T00:26:06;3.80;;;2.35;;
54328;SDS011;40710;51.120;13.136;2022-07-22T00:28:31;4.28;;;2.67;;
54328;SDS011;40710;51.120;13.136;2022-07-22T00:30:55;3.70;;;2.30;;
54328;SDS011;40710;51.120;13.136;2022-07-22T00:33:20;4.13;;;2.50;;
54328;SDS011;40710;51.120;13.136;2022-07-22T00:35:45;6.97;;;3.20;;
54328;SDS011;40710;51.120;13.136;2022-07-22T00:38:09;4.38;;;2.60;;
54328;SDS011;40710;51.120;13.136;2022-07-22T00:40:33;5.35;;;2.60;;
54328;SDS011;40710;51.120;13.136;2022-07-22T00:42:59;4.28;;;2.58;;
54328;SDS011;40710;51.120;13.136;2022-07-22T00:45:24;4.72;;;2.95;;
54328;SDS011;40710;51.120;13.136;2022-07-22T00:47:48;3.88;;;2.60;;
54328;SDS011;40710;51.120;13.136;2022-07-22T00:50:12;4.53;;;2.45;;
54328;SDS011;40710;51.120;13.136;2022-07-22T00:52:39;5.65;;;2.80;;
54328;SDS011;40710;51.120;13.136;2022-07-22T00:55:03;5.68;;;2.67;;
54328;SDS011;40710;51.120;13.136;2022-07-22T00:57:29;7.20;;;2.90;;
54328;SDS011;40710;51.120;13.136;2022-07-22T00:59:53;4.72;;;2.40;;
54328;SDS011;40710;51.120;13.136;2022-07-22T01:02:18;4.72;;;3.10;;
54328;SDS011;40710;51.120;13.136;2022-07-22T01:04:42;4.53;;;2.97;;
54328;SDS011;40710;51.120;13.136;2022-07-22T01:07:07;6.07;;;2.58;;
54328;SDS011;40710;51.120;13.136;2022-07-22T01:09:32;7.00;;;2.67;;
54328;SDS011;40710;51.120;13.136;2022-07-22T01:11:57;4.88;;;2.55;;
54328;SDS011;40710;51.120;13.136;2022-07-22T01:14:21;8.57;;;2.90;;
54328;SDS011;40710;51.120;13.136;2022-07-22T01:16:46;4.82;;;2.53;;
54328;SDS011;40710;51.120;13.136;2022-07-22T01:19:10;5.60;;;2.78;;
54328;SDS011;40710;51.120;13.136;2022-07-22T01:21:34;4.65;;;2.45;;
54328;SDS011;40710;51.120;13.136;2022-07-22T01:23:59;7.93;;;2.65;;
54328;SDS011;40710;51.120;13.136;2022-07-22T01:26:23;4.47;;;2.92;;
54328;SDS011;40710;51.120;13.136;2022-07-22T01:28:48;5.00;;;2.80;;
54328;SDS011;40710;51.120;13.136;2022-07-22T01:31:12;4.25;;;2.80;;
54328;SDS011;40710;51.120;13.136;2022-07-22T01:33:37;6.03;;;2.45;;
54328;SDS011;40710;51.120;13.136;2022-07-22T01:36:02;6.45;;;3.17;;
54328;SDS011;40710;51.120;13.136;2022-07-22T01:38:28;5.18;;;2.60;;
54328;SDS011;40710;51.120;13.136;2022-07-22T01:40:52;4.38;;;2.40;;
54328;SDS011;40710;51.120;13.136;2022-07-22T01:43:16;4.90;;;2.92;;
54328;SDS011;40710;51.120;13.136;2022-07-22T01:45:45;5.38;;;3.17;;
54328;SDS011;40710;51.120;13.136;2022-07-22T01:48:09;5.28;;;2.78;;
54328;SDS011;40710;51.120;13.136;2022-07-22T01:50:34;4.95;;;2.95;;
54328;SDS011;40710;51.120;13.136;2022-07-22T01:52:58;8.43;;;3.20;;
54328;SDS011;40710;51.120;13.136;2022-07-22T01:55:23;4.32;;;2.92;;
54328;SDS011;40710;51.120;13.136;2022-07-22T01:57:47;5.43;;;2.80;;
54328;SDS011;40710;51.120;13.136;2022-07-22T02:00:12;4.68;;;2.88;;
54328;SDS011;40710;51.120;13.136;2022-07-22T02:02:36;5.57;;;3.10;;
54328;SDS011;40710;51.120;13.136;2022-07-22T02:05:01;4.28;;;2.88;;
54328;SDS011;40710;51.120;13.136;2022-07-22T02:07:26;6.40;;;3.05;;
54328;SDS011;40710;51.120;13.136;2022-07-22T02:09:54;5.25;;;3.00;;
54328;SDS011;40710;51.120;13.136;2022-07-22T02:12:18;5.78;;;3.08;;
54328;SDS011;40710;51.120;13.136;2022-07-22T02:14:43;4.50;;;2.75;;
54328;SDS011;40710;51.120;13.136;2022-07-22T02:17:07;6.25;;;3.25;;
54328;SDS011;40710;51.120;13.136;2022-07-22T02:19:32;5.10;;;3.42;;
54328;SDS011;40710;51.120;13.136;2022-07-22T02:21:56;5.32;;;3.05;;
54328;SDS011;40710;51.120;13.136;2022-07-22T02:24:20;7.55;;;3.00;;
54328;SDS011;40710;51.120;13.136;2022-07-22T02:26:45;4.70;;;3.15;;
54328;SDS011;40710;51.120;13.136;2022-07-22T02:29:10;4.57;;;2.75;;
54328;SDS011;40710;51.120;13.136;2022-07-22T02:31:34;5.57;;;3.03;;
54328;SDS011;40710;51.120;13.136;2022-07-22T02:33:59;4.70;;;2.90;;
54328;SDS011;40710;51.120;13.136;2022-07-22T02:36:23;5.13;;;3.05;;
54328;SDS011;40710;51.120;13.136;2022-07-22T02:38:47;5.03;;;3.17;;
54328;SDS011;40710;51.120;13.136;2022-07-22T02:41:12;4.30;;;2.90;;
54328;SDS011;40710;51.120;13.136;2022-07-22T02:43:36;7.72;;;3.22;;
54328;SDS011;40710;51.120;13.136;2022-07-22T02:46:01;5.20;;;3.05;;
54328;SDS011;40710;51.120;13.136;2022-07-22T02:48:25;5.55;;;3.55;;
54328;SDS011;40710;51.120;13.136;2022-07-22T02:50:49;5.55;;;3.78;;
54328;SDS011;40710;51.120;13.136;2022-07-22T02:53:14;5.40;;;3.28;;
54328;SDS011;40710;51.120;13.136;2022-07-22T02:55:38;5.10;;;3.40;;
54328;SDS011;40710;51.120;13.136;2022-07-22T02:58:04;5.18;;;3.30;;
54328;SDS011;40710;51.120;13.136;2022-07-22T03:00:32;5.28;;;3.20;;
54328;SDS011;40710;51.120;13.136;2022-07-22T03:02:57;5.68;;;3.28;;
54328;SDS011;40710;51.120;13.136;2022-07-22T03:05:21;7.10;;;3.22;;
54328;SDS011;40710;51.120;13.136;2022-07-22T03:07:46;6.93;;;3.65;;
54328;SDS011;40710;51.120;13.136;2022-07-22T03:10:12;5.90;;;3.60;;
54328;SDS011;40710;51.120;13.136;2022-07-22T03:12:36;6.22;;;3.67;;
54328;SDS011;40710;51.120;13.136;2022-07-22T03:15:01;5.43;;;3.20;;
54328;SDS011;40710;51.120;13.136;2022-07-22T03:17:25;5.00;;;3.33;;
54328;SDS011;40710;51.120;13.136;2022-07-22T03:19:50;6.72;;;3.40;;
54328;SDS011;40710;51.120;13.136;2022-07-22T03:22:14;4.47;;;3.20;;
54328;SDS011;40710;51.120;13.136;2022-07-22T03:24:39;5.15;;;3.30;;
54328;SDS011;40710;51.120;13.136;2022-07-22T03:27:03;6.72;;;3.80;;
54328;SDS011;40710;51.120;13.136;2022-07-22T03:29:27;5.38;;;3.40;;
54328;SDS011;40710;51.120;13.136;2022-07-22T03:31:52;5.47;;;3.50;;
54328;SDS011;40710;51.120;13.136;2022-07-22T03:34:16;6.60;;;3.58;;
54328;SDS011;40710;51.120;13.136;2022-07-22T03:36:40;6.43;;;3.30;;
54328;SDS011;40710;51.120;13.136;2022-07-22T03:39:05;5.53;;;3.13;;
54328;SDS011;40710;51.120;13.136;2022-07-22T03:41:29;5.72;;;3.30;;
54328;SDS011;40710;51.120;13.136;2022-07-22T03:43:54;4.40;;;3.20;;
54328;SDS011;40710;51.120;13.136;2022-07-22T03:46:18;5.15;;;3.47;;
54328;SDS011;40710;51.120;13.136;2022-07-22T03:48:42;7.63;;;3.63;;
54328;SDS011;40710;51.120;13.136;2022-07-22T03:51:07;6.03;;;3.33;;
54328;SDS011;40710;51.120;13.136;2022-07-22T03:53:31;6.53;;;3.55;;
54328;SDS011;40710;51.120;13.136;2022-07-22T03:55:59;5.82;;;3.53;;
54328;SDS011;40710;51.120;13.136;2022-07-22T03:58:24;7.20;;;3.63;;
54328;SDS011;40710;51.120;13.136;2022-07-22T04:00:50;6.60;;;3.58;;
54328;SDS011;40710;51.120;13.136;2022-07-22T04:03:15;6.80;;;3.50;;
54328;SDS011;40710;51.120;13.136;2022-07-22T04:05:39;6.35;;;3.78;;
54328;SDS011;40710;51.120;13.136;2022-07-22T04:08:04;5.97;;;3.63;;
54328;SDS011;40710;51.120;13.136;2022-07-22T04:10:28;6.35;;;3.75;;
54328;SDS011;40710;51.120;13.136;2022-07-22T04:12:52;7.20;;;3.53;;
54328;SDS011;40710;51.120;13.136;2022-07-22T04:15:17;5.38;;;3.60;;
54328;SDS011;40710;51.120;13.136;2022-07-22T04:17:41;7.25;;;3.67;;
54328;SDS011;40710;51.120;13.136;2022-07-22T04:20:05;6.93;;;3.15;;
54328;SDS011;40710;51.120;13.136;2022-07-22T04:22:30;7.03;;;3.30;;
54328;SDS011;40710;51.120;13.136;2022-07-22T04:24:55;6.70;;;3.50;;
54328;SDS011;40710;51.120;13.136;2022-07-22T04:27:19;5.35;;;3.63;;
54328;SDS011;40710;51.120;13.136;2022-07-22T04:29:43;6.95;;;3.72;;
54328;SDS011;40710;51.120;13.136;2022-07-22T04:32:08;5.75;;;3.65;;
54328;SDS011;40710;51.120;13.136;2022-07-22T04:34:32;7.80;;;3.80;;
54328;SDS011;40710;51.120;13.136;2022-07-22T04:36:56;5.82;;;3.85;;
54328;SDS011;40710;51.120;13.136;2022-07-22T04:39:21;6.00;;;3.85;;
54328;SDS011;40710;51.120;13.136;2022-07-22T04:41:45;5.82;;;3.55;;
54328;SDS011;40710;51.120;13.136;2022-07-22T04:44:10;5.95;;;3.65;;
54328;SDS011;40710;51.120;13.136;2022-07-22T04:46:34;6.07;;;3.47;;
54328;SDS011;40710;51.120;13.136;2022-07-22T04:48:58;5.60;;;3.30;;
54328;SDS011;40710;51.120;13.136;2022-07-22T04:51:23;5.03;;;3.33;;
54328;SDS011;40710;51.120;13.136;2022-07-22T04:53:48;6.28;;;3.30;;
54328;SDS011;40710;51.120;13.136;2022-07-22T04:56:12;4.78;;;3.45;;
54328;SDS011;40710;51.120;13.136;2022-07-22T04:58:37;7.50;;;3.67;;
54328;SDS011;40710;51.120;13.136;2022-07-22T05:01:01;5.45;;;3.42;;
54328;SDS011;40710;51.120;13.136;2022-07-22T05:03:25;5.13;;;3.42;;
54328;SDS011;40710;51.120;13.136;2022-07-22T05:05:50;5.50;;;3.45;;
54328;SDS011;40710;51.120;13.136;2022-07-22T05:08:14;6.45;;;3.90;;
54328;SDS011;40710;51.120;13.136;2022-07-22T05:10:39;6.63;;;3.38;;
54328;SDS011;40710;51.120;13.136;2022-07-22T05:13:03;6.75;;;3.45;;
54328;SDS011;40710;51.120;13.136;2022-07-22T05:15:27;6.63;;;3.75;;
54328;SDS011;40710;51.120;13.136;2022-07-22T05:17:52;6.72;;;3.80;;
54328;SDS011;40710;51.120;13.136;2022-07-22T05:20:16;7.50;;;4.22;;
54328;SDS011;40710;51.120;13.136;2022-07-22T05:22:41;5.10;;;3.42;;
54328;SDS011;40710;51.120;13.136;2022-07-22T05:25:06;5.50;;;3.42;;
54328;SDS011;40710;51.120;13.136;2022-07-22T05:27:30;5.82;;;3.70;;
54328;SDS011;40710;51.120;13.136;2022-07-22T05:29:56;5.18;;;3.05;;
54328;SDS011;40710;51.120;13.136;2022-07-22T05:32:20;6.45;;;2.92;;
54328;SDS011;40710;51.120;13.136;2022-07-22T05:34:45;5.75;;;3.53;;
54328;SDS011;40710;51.120;13.136;2022-07-22T05:37:09;11.10;;;3.90;;
54328;SDS011;40710;51.120;13.136;2022-07-22T05:39:33;6.30;;;3.80;;
54328;SDS011;40710;51.120;13.136;2022-07-22T05:41:58;5.70;;;3.85;;
54328;SDS011;40710;51.120;13.136;2022-07-22T05:44:22;4.90;;;3.30;;
54328;SDS011;40710;51.120;13.136;2022-07-22T05:46:46;5.72;;;3.38;;
54328;SDS011;40710;51.120;13.136;2022-07-22T05:49:11;4.97;;;3.20;;
54328;SDS011;40710;51.120;13.136;2022-07-22T05:51:35;6.45;;;2.95;;
54328;SDS011;40710;51.120;13.136;2022-07-22T05:54:00;6.07;;;3.58;;
54328;SDS011;40710;51.120;13.136;2022-07-22T05:56:26;5.63;;;3.45;;
54328;SDS011;40710;51.120;13.136;2022-07-22T05:58:50;5.22;;;2.90;;
54328;SDS011;40710;51.120;13.136;2022-07-22T06:01:14;4.22;;;2.75;;
54328;SDS011;40710;51.120;13.136;2022-07-22T06:03:39;5.18;;;3.03;;
54328;SDS011;40710;51.120;13.136;2022-07-22T06:06:04;4.28;;;2.55;;
54328;SDS011;40710;51.120;13.136;2022-07-22T06:08:32;6.47;;;3.50;;
54328;SDS011;40710;51.120;13.136;2022-07-22T06:10:57;5.95;;;3.17;;
54328;SDS011;40710;51.120;13.136;2022-07-22T06:13:23;5.55;;;2.88;;
54328;SDS011;40710;51.120;13.136;2022-07-22T06:15:47;4.80;;;2.90;;
54328;SDS011;40710;51.120;13.136;2022-07-22T06:18:12;4.20;;;2.65;;
54328;SDS011;40710;51.120;13.136;2022-07-22T06:20:36;4.47;;;2.67;;
54328;SDS011;40710;51.120;13.136;2022-07-22T06:23:01;4.05;;;2.55;;
54328;SDS011;40710;51.120;13.136;2022-07-22T06:25:25;4.03;;;2.50;;
54328;SDS011;40710;51.120;13.136;2022-07-22T06:27:49;6.10;;;2.40;;
54328;SDS011;40710;51.120;13.136;2022-07-22T06:30:14;5.75;;;2.40;;
54328;SDS011;40710;51.120;13.136;2022-07-22T06:32:38;5.22;;;2.88;;
54328;SDS011;40710;51.120;13.136;2022-07-22T06:35:02;4.28;;;2.63;;
54328;SDS011;40710;51.120;13.136;2022-07-22T06:37:27;4.28;;;2.42;;
54328;SDS011;40710;51.120;13.136;2022-07-22T06:39:51;5.15;;;2.90;;
54328;SDS011;40710;51.120;13.136;2022-07-22T06:42:16;4.93;;;2.78;;
54328;SDS011;40710;51.120;13.136;2022-07-22T06:44:40;5.55;;;2.70;;
54328;SDS011;40710;51.120;13.136;2022-07-22T06:47:05;4.80;;;2.50;;
54328;SDS011;40710;51.120;13.136;2022-07-22T06:49:29;5.38;;;2.72;;
54328;SDS011;40710;51.120;13.136;2022-07-22T06:51:53;4.90;;;2.90;;
54328;SDS011;40710;51.120;13.136;2022-07-22T06:54:18;4.03;;;2.50;;
54328;SDS011;40710;51.120;13.136;2022-07-22T06:56:43;4.63;;;2.25;;
54328;SDS011;40710;51.120;13.136;2022-07-22T06:59:07;3.55;;;2.22;;
54328;SDS011;40710;51.120;13.136;2022-07-22T07:01:31;5.10;;;2.40;;
54328;SDS011;40710;51.120;13.136;2022-07-22T07:03:56;3.90;;;2.40;;
54328;SDS011;40710;51.120;13.136;2022-07-22T07:06:20;4.30;;;2.20;;
54328;SDS011;40710;51.120;13.136;2022-07-22T07:08:44;3.67;;;2.30;;
54328;SDS011;40710;51.120;13.136;2022-07-22T07:11:09;5.07;;;2.45;;
54328;SDS011;40710;51.120;13.136;2022-07-22T07:13:33;7.40;;;4.32;;
54328;SDS011;40710;51.120;13.136;2022-07-22T07:15:58;6.90;;;4.20;;
54328;SDS011;40710;51.120;13.136;2022-07-22T07:18:22;3.90;;;2.47;;
54328;SDS011;40710;51.120;13.136;2022-07-22T07:20:47;4.38;;;2.75;;
54328;SDS011;40710;51.120;13.136;2022-07-22T07:23:11;5.90;;;2.90;;
54328;SDS011;40710;51.120;13.136;2022-07-22T07:25:35;5.32;;;2.63;;
54328;SDS011;40710;51.120;13.136;2022-07-22T07:28:00;4.30;;;2.45;;
54328;SDS011;40710;51.120;13.136;2022-07-22T07:30:24;4.60;;;2.90;;
54328;SDS011;40710;51.120;13.136;2022-07-22T07:32:49;4.22;;;2.58;;
54328;SDS011;40710;51.120;13.136;2022-07-22T07:35:13;3.97;;;2.33;;
54328;SDS011;40710;51.120;13.136;2022-07-22T07:37:38;4.25;;;2.70;;
54328;SDS011;40710;51.120;13.136;2022-07-22T07:40:03;4.50;;;2.75;;
54328;SDS011;40710;51.120;13.136;2022-07-22T07:42:29;4.40;;;2.95;;
54328;SDS011;40710;51.120;13.136;2022-07-22T07:44:53;3.63;;;2.28;;
54328;SDS011;40710;51.120;13.136;2022-07-22T07:47:17;4.28;;;2.67;;
54328;SDS011;40710;51.120;13.136;2022-07-22T07:49:44;4.18;;;2.70;;
54328;SDS011;40710;51.120;13.136;2022-07-22T07:52:09;5.55;;;2.50;;
54328;SDS011;40710;51.120;13.136;2022-07-22T07:54:34;3.67;;;2.13;;
54328;SDS011;40710;51.120;13.136;2022-07-22T07:56:58;10.85;;;8.18;;
54328;SDS011;40710;51.120;13.136;2022-07-22T07:59:23;5.70;;;3.25;;
54328;SDS011;40710;51.120;13.136;2022-07-22T08:01:47;7.70;;;2.30;;
54328;SDS011;40710;51.120;13.136;2022-07-22T08:04:11;5.97;;;2.47;;
54328;SDS011;40710;51.120;13.136;2022-07-22T08:06:36;5.45;;;2.40;;
54328;SDS011;40710;51.120;13.136;2022-07-22T08:09:00;4.60;;;2.65;;
54328;SDS011;40710;51.120;13.136;2022-07-22T08:11:24;4.95;;;2.50;;
54328;SDS011;40710;51.120;13.136;2022-07-22T08:13:49;7.63;;;3.08;;
54328;SDS011;40710;51.120;13.136;2022-07-22T08:16:13;5.93;;;3.03;;
54328;SDS011;40710;51.120;13.136;2022-07-22T08:18:38;4.43;;;2.85;;
54328;SDS011;40710;51.120;13.136;2022-07-22T08:21:02;5.32;;;3.40;;
54328;SDS011;40710;51.120;13.136;2022-07-22T08:23:27;3.75;;;2.60;;
54328;SDS011;40710;51.120;13.136;2022-07-22T08:25:51;4.90;;;3.00;;
54328;SDS011;40710;51.120;13.136;2022-07-22T08:28:15;5.07;;;2.80;;
54328;SDS011;40710;51.120;13.136;2022-07-22T08:30:40;5.40;;;2.40;;
54328;SDS011;40710;51.120;13.136;2022-07-22T08:33:04;3.80;;;2.50;;
54328;SDS011;40710;51.120;13.136;2022-07-22T08:35:29;4.85;;;2.72;;
54328;SDS011;40710;51.120;13.136;2022-07-22T08:37:53;4.65;;;2.85;;
54328;SDS011;40710;51.120;13.136;2022-07-22T08:40:18;5.53;;;2.88;;
54328;SDS011;40710;51.120;13.136;2022-07-22T08:42:44;4.47;;;2.80;;
54328;SDS011;40710;51.120;13.136;2022-07-22T08:45:10;3.80;;;2.60;;
54328;SDS011;40710;51.120;13.136;2022-07-22T08:47:36;5.82;;;2.70;;
54328;SDS011;40710;51.120;13.136;2022-07-22T08:50:01;4.22;;;2.70;;
54328;SDS011;40710;51.120;13.136;2022-07-22T08:52:27;5.05;;;2.90;;
54328;SDS011;40710;51.120;13.136;2022-07-22T08:54:51;4.22;;;2.78;;
54328;SDS011;40710;51.120;13.136;2022-07-22T08:57:16;4.03;;;2.80;;
54328;SDS011;40710;51.120;13.136;2022-07-22T08:59:48;6.35;;;2.65;;
54328;SDS011;40710;51.120;13.136;2022-07-22T09:02:17;3.95;;;2.60;;
54328;SDS011;40710;51.120;13.136;2022-07-22T09:07:32;5.63;;;2.70;;
54328;SDS011;40710;51.120;13.136;2022-07-22T09:09:59;7.97;;;3.10;;
54328;SDS011;40710;51.120;13.136;2022-07-22T09:12:24;4.28;;;2.95;;
54328;SDS011;40710;51.120;13.136;2022-07-22T09:14:52;6.30;;;2.65;;
54328;SDS011;40710;51.120;13.136;2022-07-22T09:17:25;4.18;;;2.50;;
54328;SDS011;40710;51.120;13.136;2022-07-22T09:20:00;3.60;;;2.60;;
54328;SDS011;40710;51.120;13.136;2022-07-22T09:22:35;4.88;;;2.42;;
54328;SDS011;40710;51.120;13.136;2022-07-22T09:25:23;4.70;;;2.80;;
54328;SDS011;40710;51.120;13.136;2022-07-22T09:27:56;4.38;;;2.58;;
54328;SDS011;40710;51.120;13.136;2022-07-22T09:30:35;4.20;;;2.60;;
54328;SDS011;40710;51.120;13.136;2022-07-22T09:33:02;4.40;;;2.55;;
54328;SDS011;40710;51.120;13.136;2022-07-22T09:35:27;5.60;;;2.63;;
54328;SDS011;40710;51.120;13.136;2022-07-22T09:37:53;4.40;;;2.42;;
54328;SDS011;40710;51.120;13.136;2022-07-22T09:40:20;4.00;;;2.30;;
54328;SDS011;40710;51.120;13.136;2022-07-22T09:42:50;3.78;;;2.10;;
54328;SDS011;40710;51.120;13.136;2022-07-22T09:45:22;3.92;;;2.40;;
54328;SDS011;40710;51.120;13.136;2022-07-22T09:47:48;3.63;;;2.22;;
54328;SDS011;40710;51.120;13.136;2022-07-22T09:50:26;4.43;;;2.30;;
54328;SDS011;40710;51.120;13.136;2022-07-22T09:52:53;4.22;;;2.45;;
54328;SDS011;40710;51.120;13.136;2022-07-22T09:55:20;4.85;;;2.40;;
54328;SDS011;40710;51.120;13.136;2022-07-22T09:57:46;3.47;;;2.10;;
54328;SDS011;40710;51.120;13.136;2022-07-22T10:00:15;4.65;;;2.20;;
54328;SDS011;40710;51.120;13.136;2022-07-22T10:02:44;4.28;;;2.20;;
54328;SDS011;40710;51.120;13.136;2022-07-22T10:05:10;3.75;;;2.20;;
54328;SDS011;40710;51.120;13.136;2022-07-22T10:07:36;4.72;;;2.05;;
54328;SDS011;40710;51.120;13.136;2022-07-22T10:10:01;4.82;;;1.80;;
54328;SDS011;40710;51.120;13.136;2022-07-22T10:12:26;3.80;;;2.20;;
54328;SDS011;40710;51.120;13.136;2022-07-22T10:14:51;3.08;;;1.92;;
54328;SDS011;40710;51.120;13.136;2022-07-22T10:17:16;3.05;;;1.73;;
54328;SDS011;40710;51.120;13.136;2022-07-22T10:19:40;3.78;;;2.22;;
54328;SDS011;40710;51.120;13.136;2022-07-22T10:22:09;4.05;;;1.90;;
54328;SDS011;40710;51.120;13.136;2022-07-22T10:25:12;3.25;;;1.88;;
54328;SDS011;40710;51.120;13.136;2022-07-22T10:30:23;4.43;;;2.00;;
54328;SDS011;40710;51.120;13.136;2022-07-22T10:33:04;4.05;;;2.00;;
54328;SDS011;40710;51.120;13.136;2022-07-22T10:35:31;3.38;;;1.92;;
54328;SDS011;40710;51.120;13.136;2022-07-22T10:37:57;3.58;;;1.98;;
54328;SDS011;40710;51.120;13.136;2022-07-22T10:40:24;5.80;;;1.98;;
54328;SDS011;40710;51.120;13.136;2022-07-22T10:45:26;3.17;;;1.90;;
54328;SDS011;40710;51.120;13.136;2022-07-22T10:53:04;10.50;;;6.68;;
54328;SDS011;40710;51.120;13.136;2022-07-22T10:55:33;13.88;;;6.55;;
54328;SDS011;40710;51.120;13.136;2022-07-22T10:57:58;3.28;;;1.63;;
54328;SDS011;40710;51.120;13.136;2022-07-22T11:00:22;7.47;;;4.25;;
54328;SDS011;40710;51.120;13.136;2022-07-22T11:02:47;5.68;;;3.05;;
54328;SDS011;40710;51.120;13.136;2022-07-22T11:05:11;5.65;;;2.78;;
54328;SDS011;40710;51.120;13.136;2022-07-22T11:07:43;3.00;;;1.45;;
54328;SDS011;40710;51.120;13.136;2022-07-22T11:10:10;3.47;;;1.60;;
54328;SDS011;40710;51.120;13.136;2022-07-22T11:12:37;3.13;;;1.67;;
54328;SDS011;40710;51.120;13.136;2022-07-22T11:15:02;3.05;;;1.50;;
54328;SDS011;40710;51.120;13.136;2022-07-22T11:17:30;2.80;;;1.77;;
54328;SDS011;40710;51.120;13.136;2022-07-22T11:19:58;2.70;;;1.60;;
54328;SDS011;40710;51.120;13.136;2022-07-22T11:22:22;6.88;;;2.00;;
54328;SDS011;40710;51.120;13.136;2022-07-22T11:24:50;4.55;;;1.60;;
54328;SDS011;40710;51.120;13.136;2022-07-22T11:27:15;4.03;;;1.83;;
54328;SDS011;40710;51.120;13.136;2022-07-22T11:29:43;2.45;;;1.40;;
54328;SDS011;40710;51.120;13.136;2022-07-22T11:32:13;2.85;;;1.55;;
54328;SDS011;40710;51.120;13.136;2022-07-22T11:34:39;2.03;;;1.40;;
54328;SDS011;40710;51.120;13.136;2022-07-22T11:37:09;3.92;;;1.30;;
54328;SDS011;40710;51.120;13.136;2022-07-22T11:39:33;2.63;;;1.40;;
54328;SDS011;40710;51.120;13.136;2022-07-22T11:41:59;2.53;;;1.50;;
54328;SDS011;40710;51.120;13.136;2022-07-22T11:44:27;3.83;;;1.50;;
54328;SDS011;40710;51.120;13.136;2022-07-22T11:46:54;2.83;;;1.52;;
54328;SDS011;40710;51.120;13.136;2022-07-22T11:49:22;2.80;;;1.40;;
54328;SDS011;40710;51.120;13.136;2022-07-22T11:51:47;2.05;;;1.42;;
54328;SDS011;40710;51.120;13.136;2022-07-22T11:54:12;2.58;;;1.30;;
54328;SDS011;40710;51.120;13.136;2022-07-22T11:56:36;2.25;;;1.48;;
54328;SDS011;40710;51.120;13.136;2022-07-22T11:59:01;2.65;;;1.40;;
54328;SDS011;40710;51.120;13.136;2022-07-22T12:01:32;2.75;;;1.40;;
54328;SDS011;40710;51.120;13.136;2022-07-22T12:03:59;2.28;;;1.23;;
54328;SDS011;40710;51.120;13.136;2022-07-22T12:06:26;2.95;;;1.48;;
54328;SDS011;40710;51.120;13.136;2022-07-22T12:08:53;3.33;;;1.40;;
54328;SDS011;40710;51.120;13.136;2022-07-22T12:11:21;3.60;;;1.42;;
54328;SDS011;40710;51.120;13.136;2022-07-22T12:13:48;1.90;;;1.50;;
54328;SDS011;40710;51.120;13.136;2022-07-22T12:16:17;2.85;;;1.50;;
54328;SDS011;40710;51.120;13.136;2022-07-22T12:19:13;3.90;;;1.60;;
54328;SDS011;40710;51.120;13.136;2022-07-22T12:24:16;1.95;;;1.30;;
54328;SDS011;40710;51.120;13.136;2022-07-22T12:26:50;2.42;;;1.40;;
54328;SDS011;40710;51.120;13.136;2022-07-22T12:29:18;2.25;;;1.20;;
54328;SDS011;40710;51.120;13.136;2022-07-22T12:31:53;2.42;;;1.50;;
54328;SDS011;40710;51.120;13.136;2022-07-22T12:34:36;2.25;;;1.40;;
54328;SDS011;40710;51.120;13.136;2022-07-22T12:37:16;1.48;;;1.23;;
54328;SDS011;40710;51.120;13.136;2022-07-22T12:39:55;3.70;;;1.55;;
54328;SDS011;40710;51.120;13.136;2022-07-22T12:42:30;2.90;;;1.40;;
54328;SDS011;40710;51.120;13.136;2022-07-22T12:45:06;2.90;;;1.30;;
54328;SDS011;40710;51.120;13.136;2022-07-22T12:50:32;1.58;;;1.30;;
54328;SDS011;40710;51.120;13.136;2022-07-22T12:53:17;2.90;;;1.20;;
54328;SDS011;40710;51.120;13.136;2022-07-22T12:55:42;1.42;;;1.00;;
54328;SDS011;40710;51.120;13.136;2022-07-22T12:58:10;2.70;;;1.40;;
54328;SDS011;40710;51.120;13.136;2022-07-22T13:00:36;1.90;;;1.20;;
54328;SDS011;40710;51.120;13.136;2022-07-22T13:03:02;2.22;;;1.30;;
54328;SDS011;40710;51.120;13.136;2022-07-22T13:05:26;2.47;;;1.25;;
54328;SDS011;40710;51.120;13.136;2022-07-22T13:07:51;3.20;;;1.42;;
54328;SDS011;40710;51.120;13.136;2022-07-22T13:10:17;2.88;;;1.40;;
54328;SDS011;40710;51.120;13.136;2022-07-22T13:12:42;4.40;;;1.70;;
54328;SDS011;40710;51.120;13.136;2022-07-22T13:15:07;1.75;;;1.30;;
54328;SDS011;40710;51.120;13.136;2022-07-22T13:17:32;3.78;;;1.40;;
54328;SDS011;40710;51.120;13.136;2022-07-22T13:19:56;3.92;;;1.58;;
54328;SDS011;40710;51.120;13.136;2022-07-22T13:22:20;1.85;;;1.40;;
54328;SDS011;40710;51.120;13.136;2022-07-22T13:24:45;2.55;;;1.60;;
54328;SDS011;40710;51.120;13.136;2022-07-22T13:27:09;1.73;;;1.27;;
54328;SDS011;40710;51.120;13.136;2022-07-22T13:29:34;3.80;;;1.40;;
54328;SDS011;40710;51.120;13.136;2022-07-22T13:31:58;1.70;;;1.10;;
54328;SDS011;40710;51.120;13.136;2022-07-22T13:34:23;2.85;;;1.35;;
54328;SDS011;40710;51.120;13.136;2022-07-22T13:36:47;2.28;;;1.30;;
54328;SDS011;40710;51.120;13.136;2022-07-22T13:39:11;1.30;;;1.10;;
54328;SDS011;40710;51.120;13.136;2022-07-22T13:41:36;2.40;;;1.10;;
54328;SDS011;40710;51.120;13.136;2022-07-22T13:44:00;2.28;;;1.40;;
54328;SDS011;40710;51.120;13.136;2022-07-22T13:46:25;5.63;;;1.60;;
54328;SDS011;40710;51.120;13.136;2022-07-22T13:48:49;1.30;;;1.10;;
54328;SDS011;40710;51.120;13.136;2022-07-22T13:51:13;3.70;;;1.30;;
54328;SDS011;40710;51.120;13.136;2022-07-22T13:53:38;5.38;;;1.83;;
54328;SDS011;40710;51.120;13.136;2022-07-22T13:56:03;2.88;;;1.45;;
54328;SDS011;40710;51.120;13.136;2022-07-22T13:58:27;1.90;;;1.20;;
54328;SDS011;40710;51.120;13.136;2022-07-22T14:00:52;2.83;;;1.20;;
54328;SDS011;40710;51.120;13.136;2022-07-22T14:03:16;2.67;;;1.27;;
54328;SDS011;40710;51.120;13.136;2022-07-22T14:05:41;2.00;;;1.17;;
54328;SDS011;40710;51.120;13.136;2022-07-22T14:08:05;2.25;;;1.40;;
54328;SDS011;40710;51.120;13.136;2022-07-22T14:10:29;2.03;;;1.20;;
54328;SDS011;40710;51.120;13.136;2022-07-22T14:12:54;4.03;;;1.20;;
54328;SDS011;40710;51.120;13.136;2022-07-22T14:15:18;1.80;;;1.30;;
54328;SDS011;40710;51.120;13.136;2022-07-22T14:17:44;2.17;;;1.23;;
54328;SDS011;40710;51.120;13.136;2022-07-22T14:20:08;2.30;;;1.27;;
54328;SDS011;40710;51.120;13.136;2022-07-22T14:22:33;2.25;;;1.30;;
54328;SDS011;40710;51.120;13.136;2022-07-22T14:24:58;2.08;;;1.13;;
54328;SDS011;40710;51.120;13.136;2022-07-22T14:27:23;1.95;;;1.20;;
54328;SDS011;40710;51.120;13.136;2022-07-22T14:29:47;1.85;;;1.20;;
54328;SDS011;40710;51.120;13.136;2022-07-22T14:32:11;1.83;;;1.40;;
54328;SDS011;40710;51.120;13.136;2022-07-22T14:34:36;2.10;;;1.15;;
54328;SDS011;40710;51.120;13.136;2022-07-22T14:37:00;2.38;;;1.20;;
54328;SDS011;40710;51.120;13.136;2022-07-22T14:39:25;3.50;;;1.40;;
54328;SDS011;40710;51.120;13.136;2022-07-22T14:41:49;1.73;;;1.15;;
54328;SDS011;40710;51.120;13.136;2022-07-22T14:44:13;2.15;;;1.50;;